sensor_id;sensor_type;location;lat;lon;timestamp;temperature;humidity
3053;DHT22;1536;51.098;6.414;2023-04-06T00:01:24;5.30;99.90
3053;DHT22;1536;51.098;6.414;2023-04-06T00:04:05;5.30;99.90
3053;DHT22;1536;51.098;6.414;2023-04-06T00:06:46;5.30;99.90
3053;DHT22;1536;51.098;6.414;2023-04-06T00:09:27;5.30;99.90
3053;DHT22;1536;51.098;6.414;2023-04-06T00:12:09;5.30;99.90
3053;DHT22;1536;51.098;6.414;2023-04-06T00:14:51;5.30;99.90
3053;DHT22;1536;51.098;6.414;2023-04-06T00:17:31;5.20;99.90
3053;DHT22;1536;51.098;6.414;2023-04-06T00:20:12;5.20;99.90
3053;DHT22;1536;51.098;6.414;2023-04-06T00:22:53;5.10;99.90
3053;DHT22;1536;51.098;6.414;2023-04-06T00:25:35;5.10;99.90
3053;DHT22;1536;51.098;6.414;2023-04-06T00:28:17;5.10;99.90
3053;DHT22;1536;51.098;6.414;2023-04-06T00:30:57;5.10;99.90
3053;DHT22;1536;51.098;6.414;2023-04-06T00:33:38;5.00;99.90
3053;DHT22;1536;51.098;6.414;2023-04-06T00:36:19;5.00;99.90
3053;DHT22;1536;51.098;6.414;2023-04-06T00:38:59;5.00;99.90
3053;DHT22;1536;51.098;6.414;2023-04-06T00:41:46;4.90;99.90
3053;DHT22;1536;51.098;6.414;2023-04-06T00:44:31;4.90;99.90
3053;DHT22;1536;51.098;6.414;2023-04-06T00:47:11;4.90;99.90
3053;DHT22;1536;51.098;6.414;2023-04-06T00:49:53;4.90;99.90
3053;DHT22;1536;51.098;6.414;2023-04-06T00:52:34;4.90;99.90
3053;DHT22;1536;51.098;6.414;2023-04-06T00:55:15;4.90;99.90
3053;DHT22;1536;51.098;6.414;2023-04-06T00:57:57;4.80;99.90
3053;DHT22;1536;51.098;6.414;2023-04-06T01:00:40;4.80;99.90
3053;DHT22;1536;51.098;6.414;2023-04-06T01:03:21;4.80;99.90
3053;DHT22;1536;51.098;6.414;2023-04-06T01:06:01;4.90;99.90
3053;DHT22;1536;51.098;6.414;2023-04-06T01:08:42;4.90;99.90
3053;DHT22;1536;51.098;6.414;2023-04-06T01:11:23;4.90;99.90
3053;DHT22;1536;51.098;6.414;2023-04-06T01:14:03;4.90;99.90
3053;DHT22;1536;51.098;6.414;2023-04-06T01:16:45;4.90;99.90
3053;DHT22;1536;51.098;6.414;2023-04-06T01:19:27;4.90;99.90
3053;DHT22;1536;51.098;6.414;2023-04-06T01:22:08;4.90;99.90
3053;DHT22;1536;51.098;6.414;2023-04-06T01:24:50;4.90;99.90
3053;DHT22;1536;51.098;6.414;2023-04-06T01:27:31;5.00;99.90
3053;DHT22;1536;51.098;6.414;2023-04-06T01:30:12;5.00;99.90
3053;DHT22;1536;51.098;6.414;2023-04-06T01:32:53;5.00;99.90
3053;DHT22;1536;51.098;6.414;2023-04-06T01:35:33;4.90;99.90
3053;DHT22;1536;51.098;6.414;2023-04-06T01:38:14;4.80;99.90
3053;DHT22;1536;51.098;6.414;2023-04-06T01:40:56;4.80;99.90
3053;DHT22;1536;51.098;6.414;2023-04-06T01:43:37;4.70;99.90
3053;DHT22;1536;51.098;6.414;2023-04-06T01:46:18;4.60;99.90
3053;DHT22;1536;51.098;6.414;2023-04-06T01:48:59;4.60;99.90
3053;DHT22;1536;51.098;6.414;2023-04-06T01:51:39;4.60;99.90
3053;DHT22;1536;51.098;6.414;2023-04-06T01:54:20;4.50;99.90
3053;DHT22;1536;51.098;6.414;2023-04-06T01:57:02;4.50;99.90
3053;DHT22;1536;51.098;6.414;2023-04-06T01:59:43;4.50;99.90
3053;DHT22;1536;51.098;6.414;2023-04-06T02:02:24;4.40;99.90
3053;DHT22;1536;51.098;6.414;2023-04-06T02:05:05;4.50;99.90
3053;DHT22;1536;51.098;6.414;2023-04-06T02:07:46;4.50;99.90
3053;DHT22;1536;51.098;6.414;2023-04-06T02:10:27;4.40;99.90
3053;DHT22;1536;51.098;6.414;2023-04-06T02:13:09;4.40;99.90
3053;DHT22;1536;51.098;6.414;2023-04-06T02:15:49;4.50;99.90
3053;DHT22;1536;51.098;6.414;2023-04-06T02:18:30;4.50;99.90
3053;DHT22;1536;51.098;6.414;2023-04-06T02:21:11;4.40;99.90
3053;DHT22;1536;51.098;6.414;2023-04-06T02:23:52;4.40;99.90
3053;DHT22;1536;51.098;6.414;2023-04-06T02:26:32;4.40;99.90
3053;DHT22;1536;51.098;6.414;2023-04-06T02:29:15;4.30;99.90
3053;DHT22;1536;51.098;6.414;2023-04-06T02:31:55;4.30;99.90
3053;DHT22;1536;51.098;6.414;2023-04-06T02:34:36;4.30;99.90
3053;DHT22;1536;51.098;6.414;2023-04-06T02:37:17;4.30;99.90
3053;DHT22;1536;51.098;6.414;2023-04-06T02:39:57;4.30;99.90
3053;DHT22;1536;51.098;6.414;2023-04-06T02:42:38;4.30;99.90
3053;DHT22;1536;51.098;6.414;2023-04-06T02:45:20;4.30;99.90
3053;DHT22;1536;51.098;6.414;2023-04-06T02:48:01;4.30;99.90
3053;DHT22;1536;51.098;6.414;2023-04-06T02:50:41;4.40;99.90
3053;DHT22;1536;51.098;6.414;2023-04-06T02:53:22;4.50;99.90
3053;DHT22;1536;51.098;6.414;2023-04-06T02:56:03;4.50;99.90
3053;DHT22;1536;51.098;6.414;2023-04-06T02:58:44;4.50;99.90
3053;DHT22;1536;51.098;6.414;2023-04-06T03:01:26;4.50;99.90
3053;DHT22;1536;51.098;6.414;2023-04-06T03:04:07;4.50;99.90
3053;DHT22;1536;51.098;6.414;2023-04-06T03:06:47;4.40;99.90
3053;DHT22;1536;51.098;6.414;2023-04-06T03:09:28;4.50;99.90
3053;DHT22;1536;51.098;6.414;2023-04-06T03:12:09;4.50;99.90
3053;DHT22;1536;51.098;6.414;2023-04-06T03:14:49;4.50;99.90
3053;DHT22;1536;51.098;6.414;2023-04-06T03:17:31;4.50;99.90
3053;DHT22;1536;51.098;6.414;2023-04-06T03:20:12;4.50;99.90
3053;DHT22;1536;51.098;6.414;2023-04-06T03:22:53;4.40;99.90
3053;DHT22;1536;51.098;6.414;2023-04-06T03:26:11;4.40;99.90
3053;DHT22;1536;51.098;6.414;2023-04-06T03:28:51;4.30;99.90
3053;DHT22;1536;51.098;6.414;2023-04-06T03:31:32;4.30;99.90
3053;DHT22;1536;51.098;6.414;2023-04-06T03:34:14;4.20;99.90
3053;DHT22;1536;51.098;6.414;2023-04-06T03:36:55;4.20;99.90
3053;DHT22;1536;51.098;6.414;2023-04-06T03:39:36;4.20;99.90
3053;DHT22;1536;51.098;6.414;2023-04-06T03:42:16;4.30;99.90
3053;DHT22;1536;51.098;6.414;2023-04-06T03:44:57;4.30;99.90
3053;DHT22;1536;51.098;6.414;2023-04-06T03:47:38;4.30;99.90
3053;DHT22;1536;51.098;6.414;2023-04-06T03:50:20;4.30;99.90
3053;DHT22;1536;51.098;6.414;2023-04-06T03:53:01;4.30;99.90
3053;DHT22;1536;51.098;6.414;2023-04-06T03:55:41;4.40;99.90
3053;DHT22;1536;51.098;6.414;2023-04-06T03:58:22;4.40;99.90
3053;DHT22;1536;51.098;6.414;2023-04-06T04:01:03;4.40;99.90
3053;DHT22;1536;51.098;6.414;2023-04-06T04:03:43;4.40;99.90
3053;DHT22;1536;51.098;6.414;2023-04-06T04:06:25;4.40;99.90
3053;DHT22;1536;51.098;6.414;2023-04-06T04:09:06;4.30;99.90
3053;DHT22;1536;51.098;6.414;2023-04-06T04:11:47;4.30;99.90
3053;DHT22;1536;51.098;6.414;2023-04-06T04:14:27;4.20;99.90
3053;DHT22;1536;51.098;6.414;2023-04-06T04:17:08;4.20;99.90
3053;DHT22;1536;51.098;6.414;2023-04-06T04:19:49;4.20;99.90
3053;DHT22;1536;51.098;6.414;2023-04-06T04:22:31;4.10;99.90
3053;DHT22;1536;51.098;6.414;2023-04-06T04:25:12;4.10;99.90
3053;DHT22;1536;51.098;6.414;2023-04-06T04:27:52;4.10;99.90
3053;DHT22;1536;51.098;6.414;2023-04-06T04:30:33;4.10;99.90
3053;DHT22;1536;51.098;6.414;2023-04-06T04:33:14;4.10;99.90
3053;DHT22;1536;51.098;6.414;2023-04-06T04:35:54;4.00;99.90
3053;DHT22;1536;51.098;6.414;2023-04-06T04:38:36;4.00;99.90
3053;DHT22;1536;51.098;6.414;2023-04-06T04:41:17;4.10;99.90
3053;DHT22;1536;51.098;6.414;2023-04-06T04:43:58;4.10;99.90
3053;DHT22;1536;51.098;6.414;2023-04-06T04:46:39;4.10;99.90
3053;DHT22;1536;51.098;6.414;2023-04-06T04:49:19;4.10;99.90
3053;DHT22;1536;51.098;6.414;2023-04-06T04:52:00;4.10;99.90
3053;DHT22;1536;51.098;6.414;2023-04-06T04:54:42;4.10;99.90
3053;DHT22;1536;51.098;6.414;2023-04-06T04:57:23;4.10;99.90
3053;DHT22;1536;51.098;6.414;2023-04-06T05:00:04;4.10;99.90
3053;DHT22;1536;51.098;6.414;2023-04-06T05:02:45;4.10;99.90
3053;DHT22;1536;51.098;6.414;2023-04-06T05:05:26;4.10;99.90
3053;DHT22;1536;51.098;6.414;2023-04-06T05:10:34;4.10;99.90
3053;DHT22;1536;51.098;6.414;2023-04-06T05:13:15;4.10;99.90
3053;DHT22;1536;51.098;6.414;2023-04-06T05:15:56;4.20;99.90
3053;DHT22;1536;51.098;6.414;2023-04-06T05:18:37;4.20;99.90
3053;DHT22;1536;51.098;6.414;2023-04-06T05:21:18;4.30;99.90
3053;DHT22;1536;51.098;6.414;2023-04-06T05:23:59;4.40;99.90
3053;DHT22;1536;51.098;6.414;2023-04-06T05:26:41;4.50;99.90
3053;DHT22;1536;51.098;6.414;2023-04-06T05:29:22;4.60;99.90
3053;DHT22;1536;51.098;6.414;2023-04-06T05:32:03;4.60;99.90
3053;DHT22;1536;51.098;6.414;2023-04-06T05:34:44;4.60;99.90
3053;DHT22;1536;51.098;6.414;2023-04-06T05:37:25;4.70;99.90
3053;DHT22;1536;51.098;6.414;2023-04-06T05:40:07;4.80;99.90
3053;DHT22;1536;51.098;6.414;2023-04-06T05:42:49;4.90;99.90
3053;DHT22;1536;51.098;6.414;2023-04-06T05:45:30;5.00;99.90
3053;DHT22;1536;51.098;6.414;2023-04-06T05:48:11;5.10;99.90
3053;DHT22;1536;51.098;6.414;2023-04-06T05:50:51;5.20;99.90
3053;DHT22;1536;51.098;6.414;2023-04-06T05:53:32;5.20;99.90
3053;DHT22;1536;51.098;6.414;2023-04-06T05:56:13;5.30;99.90
3053;DHT22;1536;51.098;6.414;2023-04-06T05:58:55;5.40;99.90
3053;DHT22;1536;51.098;6.414;2023-04-06T06:01:36;5.50;99.90
3053;DHT22;1536;51.098;6.414;2023-04-06T06:04:16;5.60;99.90
3053;DHT22;1536;51.098;6.414;2023-04-06T06:06:57;5.70;99.90
3053;DHT22;1536;51.098;6.414;2023-04-06T06:09:38;5.80;99.90
3053;DHT22;1536;51.098;6.414;2023-04-06T06:12:18;5.90;99.90
3053;DHT22;1536;51.098;6.414;2023-04-06T06:15:00;6.00;99.90
3053;DHT22;1536;51.098;6.414;2023-04-06T06:17:41;6.10;99.90
3053;DHT22;1536;51.098;6.414;2023-04-06T06:20:22;6.20;99.90
3053;DHT22;1536;51.098;6.414;2023-04-06T06:23:03;6.30;99.90
3053;DHT22;1536;51.098;6.414;2023-04-06T06:25:43;6.40;99.90
3053;DHT22;1536;51.098;6.414;2023-04-06T06:28:24;6.50;99.90
3053;DHT22;1536;51.098;6.414;2023-04-06T06:31:06;6.60;99.90
3053;DHT22;1536;51.098;6.414;2023-04-06T06:33:47;6.60;99.90
3053;DHT22;1536;51.098;6.414;2023-04-06T06:36:29;6.80;99.90
3053;DHT22;1536;51.098;6.414;2023-04-06T06:39:09;6.80;99.90
3053;DHT22;1536;51.098;6.414;2023-04-06T06:41:50;6.90;99.90
3053;DHT22;1536;51.098;6.414;2023-04-06T06:44:31;6.90;99.90
3053;DHT22;1536;51.098;6.414;2023-04-06T06:47:13;7.00;99.90
3053;DHT22;1536;51.098;6.414;2023-04-06T06:49:54;7.00;99.90
3053;DHT22;1536;51.098;6.414;2023-04-06T06:52:35;7.10;99.90
3053;DHT22;1536;51.098;6.414;2023-04-06T06:55:15;7.10;99.90
3053;DHT22;1536;51.098;6.414;2023-04-06T06:57:56;7.20;99.90
3053;DHT22;1536;51.098;6.414;2023-04-06T07:00:37;7.30;99.90
3053;DHT22;1536;51.098;6.414;2023-04-06T07:03:19;7.30;99.90
3053;DHT22;1536;51.098;6.414;2023-04-06T07:06:00;7.40;99.90
3053;DHT22;1536;51.098;6.414;2023-04-06T07:08:41;7.50;99.90
3053;DHT22;1536;51.098;6.414;2023-04-06T07:11:21;7.50;99.90
3053;DHT22;1536;51.098;6.414;2023-04-06T07:14:02;7.60;99.90
3053;DHT22;1536;51.098;6.414;2023-04-06T07:16:43;7.60;99.90
3053;DHT22;1536;51.098;6.414;2023-04-06T07:19:25;7.80;99.90
3053;DHT22;1536;51.098;6.414;2023-04-06T07:22:06;7.90;99.90
3053;DHT22;1536;51.098;6.414;2023-04-06T07:24:46;8.00;99.90
3053;DHT22;1536;51.098;6.414;2023-04-06T07:27:27;8.10;99.90
3053;DHT22;1536;51.098;6.414;2023-04-06T07:30:08;8.20;99.90
3053;DHT22;1536;51.098;6.414;2023-04-06T07:32:49;8.20;99.90
3053;DHT22;1536;51.098;6.414;2023-04-06T07:35:31;8.30;99.90
3053;DHT22;1536;51.098;6.414;2023-04-06T07:38:12;8.40;99.90
3053;DHT22;1536;51.098;6.414;2023-04-06T07:40:53;8.50;99.90
3053;DHT22;1536;51.098;6.414;2023-04-06T07:46:41;8.70;99.90
3053;DHT22;1536;51.098;6.414;2023-04-06T07:49:08;8.80;99.90
3053;DHT22;1536;51.098;6.414;2023-04-06T07:51:37;8.90;99.90
3053;DHT22;1536;51.098;6.414;2023-04-06T07:54:04;8.90;99.90
3053;DHT22;1536;51.098;6.414;2023-04-06T07:56:31;9.00;99.90
3053;DHT22;1536;51.098;6.414;2023-04-06T07:58:58;9.10;99.90
3053;DHT22;1536;51.098;6.414;2023-04-06T08:01:26;9.10;99.90
3053;DHT22;1536;51.098;6.414;2023-04-06T08:03:53;9.20;99.90
3053;DHT22;1536;51.098;6.414;2023-04-06T08:06:21;9.20;99.90
3053;DHT22;1536;51.098;6.414;2023-04-06T08:08:49;9.30;99.90
3053;DHT22;1536;51.098;6.414;2023-04-06T08:11:16;9.40;99.90
3053;DHT22;1536;51.098;6.414;2023-04-06T08:13:43;9.40;99.90
3053;DHT22;1536;51.098;6.414;2023-04-06T08:16:10;9.50;99.90
3053;DHT22;1536;51.098;6.414;2023-04-06T08:18:37;9.60;99.90
3053;DHT22;1536;51.098;6.414;2023-04-06T08:21:04;9.60;99.90
3053;DHT22;1536;51.098;6.414;2023-04-06T08:23:30;9.70;99.90
3053;DHT22;1536;51.098;6.414;2023-04-06T08:25:59;9.80;99.90
3053;DHT22;1536;51.098;6.414;2023-04-06T08:28:26;9.80;99.90
3053;DHT22;1536;51.098;6.414;2023-04-06T08:30:52;9.90;99.90
3053;DHT22;1536;51.098;6.414;2023-04-06T08:33:19;10.00;99.90
3053;DHT22;1536;51.098;6.414;2023-04-06T08:35:46;10.00;99.90
3053;DHT22;1536;51.098;6.414;2023-04-06T08:38:13;10.10;99.90
3053;DHT22;1536;51.098;6.414;2023-04-06T08:40:40;10.20;99.90
3053;DHT22;1536;51.098;6.414;2023-04-06T08:43:13;10.20;99.90
3053;DHT22;1536;51.098;6.414;2023-04-06T08:45:41;10.30;99.90
3053;DHT22;1536;51.098;6.414;2023-04-06T08:48:09;10.30;99.90
3053;DHT22;1536;51.098;6.414;2023-04-06T08:57:54;10.60;99.90
3053;DHT22;1536;51.098;6.414;2023-04-06T09:00:23;10.70;99.90
3053;DHT22;1536;51.098;6.414;2023-04-06T09:02:53;10.70;99.90
3053;DHT22;1536;51.098;6.414;2023-04-06T09:05:23;10.80;99.90
3053;DHT22;1536;51.098;6.414;2023-04-06T09:07:51;10.90;99.90
3053;DHT22;1536;51.098;6.414;2023-04-06T09:10:18;10.90;99.90
3053;DHT22;1536;51.098;6.414;2023-04-06T09:12:46;11.00;99.90
3053;DHT22;1536;51.098;6.414;2023-04-06T09:15:21;11.00;99.90
3053;DHT22;1536;51.098;6.414;2023-04-06T09:17:49;11.10;99.90
3053;DHT22;1536;51.098;6.414;2023-04-06T09:20:22;11.10;99.90
3053;DHT22;1536;51.098;6.414;2023-04-06T09:22:51;11.20;99.90
3053;DHT22;1536;51.098;6.414;2023-04-06T09:25:20;11.30;99.90
3053;DHT22;1536;51.098;6.414;2023-04-06T09:27:49;11.40;99.90
3053;DHT22;1536;51.098;6.414;2023-04-06T09:30:24;11.50;99.90
3053;DHT22;1536;51.098;6.414;2023-04-06T09:32:54;11.50;99.90
3053;DHT22;1536;51.098;6.414;2023-04-06T09:35:22;11.50;99.90
3053;DHT22;1536;51.098;6.414;2023-04-06T09:37:51;11.60;99.90
3053;DHT22;1536;51.098;6.414;2023-04-06T09:40:18;11.60;99.90
3053;DHT22;1536;51.098;6.414;2023-04-06T09:42:47;11.70;99.80
3053;DHT22;1536;51.098;6.414;2023-04-06T09:45:15;11.70;99.40
3053;DHT22;1536;51.098;6.414;2023-04-06T09:47:44;11.70;99.90
3053;DHT22;1536;51.098;6.414;2023-04-06T09:50:13;11.80;99.90
3053;DHT22;1536;51.098;6.414;2023-04-06T09:52:46;11.90;99.90
3053;DHT22;1536;51.098;6.414;2023-04-06T09:55:20;12.00;99.90
3053;DHT22;1536;51.098;6.414;2023-04-06T09:57:52;12.20;99.90
3053;DHT22;1536;51.098;6.414;2023-04-06T10:00:22;12.30;99.90
3053;DHT22;1536;51.098;6.414;2023-04-06T10:02:52;12.50;99.40
3053;DHT22;1536;51.098;6.414;2023-04-06T10:05:28;12.50;99.90
3053;DHT22;1536;51.098;6.414;2023-04-06T10:08:00;12.50;99.90
3053;DHT22;1536;51.098;6.414;2023-04-06T10:10:29;12.60;99.90
3053;DHT22;1536;51.098;6.414;2023-04-06T10:12:56;12.60;99.90
3053;DHT22;1536;51.098;6.414;2023-04-06T10:15:26;12.60;99.20
3053;DHT22;1536;51.098;6.414;2023-04-06T10:17:54;12.60;99.30
3053;DHT22;1536;51.098;6.414;2023-04-06T10:20:25;12.70;99.80
3053;DHT22;1536;51.098;6.414;2023-04-06T10:22:58;12.70;99.90
3053;DHT22;1536;51.098;6.414;2023-04-06T10:25:27;12.80;99.90
3053;DHT22;1536;51.098;6.414;2023-04-06T10:27:59;12.80;99.90
3053;DHT22;1536;51.098;6.414;2023-04-06T10:30:26;12.80;99.90
3053;DHT22;1536;51.098;6.414;2023-04-06T10:32:54;12.90;99.60
3053;DHT22;1536;51.098;6.414;2023-04-06T10:35:23;12.90;99.90
3053;DHT22;1536;51.098;6.414;2023-04-06T10:37:52;13.00;99.90
3053;DHT22;1536;51.098;6.414;2023-04-06T10:42:47;13.00;99.90
3053;DHT22;1536;51.098;6.414;2023-04-06T10:45:20;13.10;98.70
3053;DHT22;1536;51.098;6.414;2023-04-06T10:47:48;13.20;98.90
3053;DHT22;1536;51.098;6.414;2023-04-06T10:50:15;13.20;98.60
3053;DHT22;1536;51.098;6.414;2023-04-06T10:52:45;13.30;99.20
3053;DHT22;1536;51.098;6.414;2023-04-06T10:55:13;13.30;98.40
3053;DHT22;1536;51.098;6.414;2023-04-06T10:57:40;13.40;98.70
3053;DHT22;1536;51.098;6.414;2023-04-06T11:00:08;13.40;98.60
3053;DHT22;1536;51.098;6.414;2023-04-06T11:02:36;13.40;98.90
3053;DHT22;1536;51.098;6.414;2023-04-06T11:05:04;13.40;97.90
3053;DHT22;1536;51.098;6.414;2023-04-06T11:07:32;13.40;97.50
3053;DHT22;1536;51.098;6.414;2023-04-06T11:10:00;13.50;96.50
3053;DHT22;1536;51.098;6.414;2023-04-06T11:12:27;13.50;96.80
3053;DHT22;1536;51.098;6.414;2023-04-06T11:14:57;13.50;97.70
3053;DHT22;1536;51.098;6.414;2023-04-06T11:17:30;13.60;97.20
3053;DHT22;1536;51.098;6.414;2023-04-06T11:19:57;13.60;96.90
3053;DHT22;1536;51.098;6.414;2023-04-06T11:22:25;13.70;96.60
3053;DHT22;1536;51.098;6.414;2023-04-06T11:24:52;13.80;96.40
3053;DHT22;1536;51.098;6.414;2023-04-06T11:27:46;13.80;96.20
3053;DHT22;1536;51.098;6.414;2023-04-06T11:30:14;13.80;95.50
3053;DHT22;1536;51.098;6.414;2023-04-06T11:32:42;13.70;96.00
3053;DHT22;1536;51.098;6.414;2023-04-06T11:35:11;13.70;95.70
3053;DHT22;1536;51.098;6.414;2023-04-06T11:37:39;13.70;96.10
3053;DHT22;1536;51.098;6.414;2023-04-06T11:40:08;13.70;96.90
3053;DHT22;1536;51.098;6.414;2023-04-06T11:42:36;13.70;97.50
3053;DHT22;1536;51.098;6.414;2023-04-06T11:45:07;13.70;97.60
3053;DHT22;1536;51.098;6.414;2023-04-06T11:47:36;13.70;97.00
3053;DHT22;1536;51.098;6.414;2023-04-06T11:50:06;13.70;96.20
3053;DHT22;1536;51.098;6.414;2023-04-06T11:52:33;13.70;95.40
3053;DHT22;1536;51.098;6.414;2023-04-06T11:55:10;13.70;96.20
3053;DHT22;1536;51.098;6.414;2023-04-06T11:57:38;13.70;96.50
3053;DHT22;1536;51.098;6.414;2023-04-06T12:00:08;13.70;96.30
3053;DHT22;1536;51.098;6.414;2023-04-06T12:02:36;13.70;96.90
3053;DHT22;1536;51.098;6.414;2023-04-06T12:05:03;13.70;97.40
3053;DHT22;1536;51.098;6.414;2023-04-06T12:07:31;13.70;97.20
3053;DHT22;1536;51.098;6.414;2023-04-06T12:09:58;13.70;96.50
3053;DHT22;1536;51.098;6.414;2023-04-06T12:12:25;13.60;96.10
3053;DHT22;1536;51.098;6.414;2023-04-06T12:14:52;13.70;95.60
3053;DHT22;1536;51.098;6.414;2023-04-06T12:17:20;13.60;95.60
3053;DHT22;1536;51.098;6.414;2023-04-06T12:19:47;13.60;95.90
3053;DHT22;1536;51.098;6.414;2023-04-06T12:22:14;13.60;95.90
3053;DHT22;1536;51.098;6.414;2023-04-06T12:24:41;13.60;96.30
3053;DHT22;1536;51.098;6.414;2023-04-06T12:27:07;13.60;95.40
3053;DHT22;1536;51.098;6.414;2023-04-06T12:29:37;13.50;96.10
3053;DHT22;1536;51.098;6.414;2023-04-06T12:32:04;13.50;96.60
3053;DHT22;1536;51.098;6.414;2023-04-06T12:34:32;13.50;97.10
3053;DHT22;1536;51.098;6.414;2023-04-06T12:36:59;13.50;97.90
3053;DHT22;1536;51.098;6.414;2023-04-06T12:39:35;13.50;98.70
3053;DHT22;1536;51.098;6.414;2023-04-06T12:42:02;13.40;99.20
3053;DHT22;1536;51.098;6.414;2023-04-06T12:44:30;13.30;99.50
3053;DHT22;1536;51.098;6.414;2023-04-06T12:46:57;13.30;99.90
3053;DHT22;1536;51.098;6.414;2023-04-06T12:49:23;13.20;99.90
3053;DHT22;1536;51.098;6.414;2023-04-06T12:51:52;13.20;99.90
3053;DHT22;1536;51.098;6.414;2023-04-06T12:54:19;13.10;99.90
3053;DHT22;1536;51.098;6.414;2023-04-06T12:56:46;13.10;99.90
3053;DHT22;1536;51.098;6.414;2023-04-06T12:59:13;13.00;99.90
3053;DHT22;1536;51.098;6.414;2023-04-06T13:01:40;13.00;99.90
3053;DHT22;1536;51.098;6.414;2023-04-06T13:04:06;12.90;99.90
3053;DHT22;1536;51.098;6.414;2023-04-06T13:06:33;12.90;99.90
3053;DHT22;1536;51.098;6.414;2023-04-06T13:09:02;12.90;99.90
3053;DHT22;1536;51.098;6.414;2023-04-06T13:11:30;12.80;99.90
3053;DHT22;1536;51.098;6.414;2023-04-06T13:17:20;12.70;99.90
3053;DHT22;1536;51.098;6.414;2023-04-06T13:19:47;12.70;99.90
3053;DHT22;1536;51.098;6.414;2023-04-06T13:22:14;12.70;99.90
3053;DHT22;1536;51.098;6.414;2023-04-06T13:24:44;12.60;99.90
3053;DHT22;1536;51.098;6.414;2023-04-06T13:27:11;12.70;99.90
3053;DHT22;1536;51.098;6.414;2023-04-06T13:29:38;12.60;99.90
3053;DHT22;1536;51.098;6.414;2023-04-06T13:32:05;12.60;99.90
3053;DHT22;1536;51.098;6.414;2023-04-06T13:34:32;12.50;99.90
3053;DHT22;1536;51.098;6.414;2023-04-06T13:36:58;12.40;99.90
3053;DHT22;1536;51.098;6.414;2023-04-06T13:39:25;12.40;99.90
3053;DHT22;1536;51.098;6.414;2023-04-06T13:41:54;12.30;99.90
3053;DHT22;1536;51.098;6.414;2023-04-06T13:44:22;12.30;99.90
3053;DHT22;1536;51.098;6.414;2023-04-06T13:46:49;12.20;99.90
3053;DHT22;1536;51.098;6.414;2023-04-06T13:49:15;12.20;99.90
3053;DHT22;1536;51.098;6.414;2023-04-06T13:51:42;12.10;99.90
3053;DHT22;1536;51.098;6.414;2023-04-06T13:54:09;12.10;99.90
3053;DHT22;1536;51.098;6.414;2023-04-06T13:56:36;12.00;99.90
3053;DHT22;1536;51.098;6.414;2023-04-06T13:59:04;11.90;99.90
3053;DHT22;1536;51.098;6.414;2023-04-06T14:01:31;11.90;99.90
3053;DHT22;1536;51.098;6.414;2023-04-06T14:03:57;11.90;99.90
3053;DHT22;1536;51.098;6.414;2023-04-06T14:06:24;11.80;99.90
3053;DHT22;1536;51.098;6.414;2023-04-06T14:08:51;11.80;99.90
3053;DHT22;1536;51.098;6.414;2023-04-06T14:11:18;11.70;99.90
3053;DHT22;1536;51.098;6.414;2023-04-06T14:13:45;11.70;99.90
3053;DHT22;1536;51.098;6.414;2023-04-06T14:16:13;11.60;99.90
3053;DHT22;1536;51.098;6.414;2023-04-06T14:18:40;11.60;99.90
3053;DHT22;1536;51.098;6.414;2023-04-06T14:21:08;11.60;99.90
3053;DHT22;1536;51.098;6.414;2023-04-06T14:23:34;11.60;99.90
3053;DHT22;1536;51.098;6.414;2023-04-06T14:26:02;11.60;99.90
3053;DHT22;1536;51.098;6.414;2023-04-06T14:28:33;11.50;99.90
3053;DHT22;1536;51.098;6.414;2023-04-06T14:31:02;11.50;99.90
3053;DHT22;1536;51.098;6.414;2023-04-06T14:33:37;11.50;99.90
3053;DHT22;1536;51.098;6.414;2023-04-06T14:36:04;11.50;99.90
3053;DHT22;1536;51.098;6.414;2023-04-06T14:38:31;11.50;99.90
3053;DHT22;1536;51.098;6.414;2023-04-06T14:40:58;11.50;99.90
3053;DHT22;1536;51.098;6.414;2023-04-06T14:43:25;11.40;99.90
3053;DHT22;1536;51.098;6.414;2023-04-06T14:45:52;11.40;99.90
3053;DHT22;1536;51.098;6.414;2023-04-06T14:48:19;11.30;99.90
3053;DHT22;1536;51.098;6.414;2023-04-06T14:50:53;11.30;99.90
3053;DHT22;1536;51.098;6.414;2023-04-06T14:53:21;11.30;99.90
3053;DHT22;1536;51.098;6.414;2023-04-06T14:55:48;11.20;99.90
3053;DHT22;1536;51.098;6.414;2023-04-06T14:58:16;11.20;99.90
3053;DHT22;1536;51.098;6.414;2023-04-06T15:00:43;11.20;99.90
3053;DHT22;1536;51.098;6.414;2023-04-06T15:03:10;11.20;99.90
3053;DHT22;1536;51.098;6.414;2023-04-06T15:05:37;11.20;99.90
3053;DHT22;1536;51.098;6.414;2023-04-06T15:08:05;11.20;99.90
3053;DHT22;1536;51.098;6.414;2023-04-06T15:10:34;11.10;99.90
3053;DHT22;1536;51.098;6.414;2023-04-06T15:13:02;11.10;99.90
3053;DHT22;1536;51.098;6.414;2023-04-06T15:15:29;11.10;99.90
3053;DHT22;1536;51.098;6.414;2023-04-06T15:17:56;11.10;99.90
3053;DHT22;1536;51.098;6.414;2023-04-06T15:20:22;11.10;99.90
3053;DHT22;1536;51.098;6.414;2023-04-06T15:22:50;11.00;99.90
3053;DHT22;1536;51.098;6.414;2023-04-06T15:25:18;11.00;99.90
3053;DHT22;1536;51.098;6.414;2023-04-06T15:27:45;11.00;99.90
3053;DHT22;1536;51.098;6.414;2023-04-06T15:30:12;11.00;99.90
3053;DHT22;1536;51.098;6.414;2023-04-06T15:32:39;11.00;99.90
3053;DHT22;1536;51.098;6.414;2023-04-06T15:35:09;10.90;99.90
3053;DHT22;1536;51.098;6.414;2023-04-06T15:37:37;10.90;99.90
3053;DHT22;1536;51.098;6.414;2023-04-06T15:40:04;10.90;99.90
3053;DHT22;1536;51.098;6.414;2023-04-06T15:42:32;10.90;99.90
3053;DHT22;1536;51.098;6.414;2023-04-06T15:44:59;10.80;99.90
3053;DHT22;1536;51.098;6.414;2023-04-06T15:47:26;10.80;99.90
3053;DHT22;1536;51.098;6.414;2023-04-06T15:49:52;10.80;99.90
3053;DHT22;1536;51.098;6.414;2023-04-06T15:52:19;10.70;99.90
3053;DHT22;1536;51.098;6.414;2023-04-06T15:54:47;10.70;99.90
3053;DHT22;1536;51.098;6.414;2023-04-06T15:57:14;10.70;99.90
3053;DHT22;1536;51.098;6.414;2023-04-06T15:59:42;10.60;99.90
3053;DHT22;1536;51.098;6.414;2023-04-06T16:02:09;10.60;99.90
3053;DHT22;1536;51.098;6.414;2023-04-06T16:04:36;10.50;99.90
3053;DHT22;1536;51.098;6.414;2023-04-06T16:07:03;10.50;99.90
3053;DHT22;1536;51.098;6.414;2023-04-06T16:09:29;10.50;99.90
3053;DHT22;1536;51.098;6.414;2023-04-06T16:11:56;10.50;99.90
3053;DHT22;1536;51.098;6.414;2023-04-06T16:14:23;10.50;99.90
3053;DHT22;1536;51.098;6.414;2023-04-06T16:16:51;10.40;99.90
3053;DHT22;1536;51.098;6.414;2023-04-06T16:19:19;10.40;99.90
3053;DHT22;1536;51.098;6.414;2023-04-06T16:21:46;10.40;99.90
3053;DHT22;1536;51.098;6.414;2023-04-06T16:24:12;10.40;99.90
3053;DHT22;1536;51.098;6.414;2023-04-06T16:26:39;10.40;99.90
3053;DHT22;1536;51.098;6.414;2023-04-06T16:29:06;10.40;99.90
3053;DHT22;1536;51.098;6.414;2023-04-06T16:31:34;10.40;99.90
3053;DHT22;1536;51.098;6.414;2023-04-06T16:34:03;10.40;99.90
3053;DHT22;1536;51.098;6.414;2023-04-06T16:36:30;10.50;99.90
3053;DHT22;1536;51.098;6.414;2023-04-06T16:38:59;10.50;99.90
3053;DHT22;1536;51.098;6.414;2023-04-06T16:41:27;10.50;99.90
3053;DHT22;1536;51.098;6.414;2023-04-06T16:43:54;10.50;99.90
3053;DHT22;1536;51.098;6.414;2023-04-06T16:46:27;10.50;99.90
3053;DHT22;1536;51.098;6.414;2023-04-06T16:48:54;10.50;99.90
3053;DHT22;1536;51.098;6.414;2023-04-06T16:51:22;10.40;99.90
3053;DHT22;1536;51.098;6.414;2023-04-06T16:53:49;10.40;99.90
3053;DHT22;1536;51.098;6.414;2023-04-06T16:56:15;10.40;99.90
3053;DHT22;1536;51.098;6.414;2023-04-06T16:58:42;10.40;99.90
3053;DHT22;1536;51.098;6.414;2023-04-06T17:01:17;10.40;99.90
3053;DHT22;1536;51.098;6.414;2023-04-06T17:03:44;10.30;99.90
3053;DHT22;1536;51.098;6.414;2023-04-06T17:06:11;10.30;99.90
3053;DHT22;1536;51.098;6.414;2023-04-06T17:08:40;10.30;99.90
3053;DHT22;1536;51.098;6.414;2023-04-06T17:11:07;10.30;99.90